Time;durP1;ratioP1;P1;durP2;ratioP2;P2;SDS_P1;SDS_P2;PMS_P1;PMS_P2;Temp;Humidity;BMP_temperature;BMP_pressure;BME280_temperature;BME280_humidity;BME280_pressure;Samples;Min_cycle;Max_cycle;Signal;HPM_P1;HPM_P2
2022/10/06 00:00:16;;;;;;;8.67;1.70;;;;;;;13.02;89.66;102009.25;5027510;28;20454;-87
2022/10/06 00:02:41;;;;;;;7.37;1.83;;;;;;;12.95;90.50;102021.97;5027427;28;20579;-87
2022/10/06 00:05:06;;;;;;;10.83;2.10;;;;;;;12.91;90.53;102024.25;5027374;28;20093;-86
2022/10/06 00:07:33;;;;;;;5.20;1.70;;;;;;;12.86;91.09;102021.28;5027146;28;20042;-87
2022/10/06 00:09:59;;;;;;;9.57;2.10;;;;;;;12.87;90.95;102042.00;5027625;28;20044;-90
2022/10/06 00:12:24;;;;;;;10.17;1.83;;;;;;;12.80;91.53;102039.22;5027537;28;20388;-89
2022/10/06 00:14:49;;;;;;;8.70;1.93;;;;;;;12.81;91.32;102046.34;5026766;28;20056;-88
2022/10/06 00:17:15;;;;;;;9.57;2.00;;;;;;;12.73;91.20;102037.47;5027007;28;20114;-89
2022/10/06 00:19:40;;;;;;;9.97;1.73;;;;;;;12.70;91.07;102043.31;5027030;28;20060;-89
2022/10/06 00:22:05;;;;;;;9.50;1.90;;;;;;;12.76;91.09;102058.88;5026507;28;20191;-89
2022/10/06 00:24:31;;;;;;;11.07;2.10;;;;;;;12.75;90.74;102068.88;5026030;28;20042;-90
2022/10/06 00:26:56;;;;;;;10.30;2.00;;;;;;;12.69;90.82;102068.84;5026316;28;20041;-90
2022/10/06 00:29:21;;;;;;;10.83;2.30;;;;;;;12.72;90.15;102068.47;5026523;28;20242;-90
2022/10/06 00:31:47;;;;;;;10.77;1.93;;;;;;;12.65;90.01;102080.09;5027227;28;20187;-90
2022/10/06 00:34:12;;;;;;;6.63;1.90;;;;;;;12.64;89.97;102083.03;5026288;28;20119;-87
2022/10/06 00:36:38;;;;;;;11.43;2.20;;;;;;;12.63;89.62;102084.06;5027043;28;20643;-88
2022/10/06 00:39:03;;;;;;;11.03;2.23;;;;;;;12.59;89.56;102091.78;5026758;28;20464;-89
2022/10/06 00:41:30;;;;;;;12.20;2.23;;;;;;;12.63;88.76;102098.50;5027537;28;20138;-88
2022/10/06 00:43:59;;;;;;;9.70;2.40;;;;;;;12.59;88.75;102094.50;5025579;28;20069;-87
2022/10/06 00:46:36;;;;;;;8.53;2.40;;;;;;;12.57;88.47;102104.72;5021523;28;20384;-88
2022/10/06 00:49:10;;;;;;;13.13;2.10;;;;;;;12.58;88.37;102100.97;5026503;28;20036;-87
2022/10/06 00:51:39;;;;;;;13.82;2.28;;;;;;;12.55;88.08;102105.94;5027148;28;20610;-89
2022/10/06 00:54:06;;;;;;;13.03;2.30;;;;;;;12.55;87.33;102114.09;5026288;28;20053;-90
2022/10/06 00:56:31;;;;;;;11.83;2.50;;;;;;;12.54;86.94;102115.13;5015398;28;20549;-88
2022/10/06 00:58:56;;;;;;;11.80;2.30;;;;;;;12.57;86.42;102123.75;5026358;28;20047;-87
2022/10/06 01:01:23;;;;;;;11.97;2.30;;;;;;;12.54;86.67;102121.41;5027211;28;20025;-90
2022/10/06 01:04:01;;;;;;;12.40;2.67;;;;;;;12.51;86.75;102121.78;5023928;28;20690;-89
2022/10/06 01:06:27;;;;;;;12.40;2.60;;;;;;;12.48;86.33;102120.31;5027233;28;20037;-88
2022/10/06 01:08:52;;;;;;;12.63;2.37;;;;;;;12.47;86.81;102126.78;5026501;28;20059;-87
2022/10/06 01:11:18;;;;;;;13.47;2.50;;;;;;;12.44;86.87;102132.63;5027003;28;20052;-90
2022/10/06 01:13:45;;;;;;;13.93;2.03;;;;;;;12.39;87.22;102134.19;5025536;28;20110;-88
2022/10/06 01:16:23;;;;;;;10.60;2.10;;;;;;;12.40;87.47;102147.63;5026842;28;20029;-89
2022/10/06 01:18:52;;;;;;;9.77;2.20;;;;;;;12.34;88.08;102145.66;5025611;28;20037;-91
2022/10/06 01:21:36;;;;;;;12.93;2.40;;;;;;;12.36;88.28;102150.91;5026192;28;20522;-89
2022/10/06 01:24:03;;;;;;;16.00;2.50;;;;;;;12.20;88.33;102139.25;5025884;28;20033;-89
2022/10/06 01:26:30;;;;;;;9.63;2.47;;;;;;;12.31;88.67;102155.03;5026427;28;20291;-88
2022/10/06 01:28:56;;;;;;;11.30;2.30;;;;;;;12.28;89.34;102168.16;5026560;28;20024;-89
2022/10/06 01:31:22;;;;;;;10.00;2.27;;;;;;;12.28;89.30;102171.72;5026534;28;20500;-90
2022/10/06 01:33:53;;;;;;;8.67;1.97;;;;;;;12.23;89.74;102168.75;5025858;28;20102;-89
2022/10/06 01:36:19;;;;;;;12.20;2.50;;;;;;;12.19;90.29;102174.75;5027131;28;20083;-89
2022/10/06 01:38:44;;;;;;;13.30;2.30;;;;;;;12.17;90.40;102174.91;5028751;28;20084;-89
2022/10/06 01:41:10;;;;;;;9.60;2.33;;;;;;;12.12;90.42;102182.81;5012231;28;20076;-90
2022/10/06 01:43:35;;;;;;;10.70;2.13;;;;;;;12.12;90.28;102188.25;5029382;28;20189;-89
2022/10/06 01:46:00;;;;;;;9.93;2.30;;;;;;;12.10;90.40;102193.03;5029471;28;20071;-89
2022/10/06 01:48:26;;;;;;;9.90;2.47;;;;;;;12.09;90.22;102186.75;5029991;28;20075;-87
2022/10/06 01:50:53;;;;;;;10.67;2.27;;;;;;;12.06;90.09;102181.72;5028352;28;20068;-88
2022/10/06 01:53:18;;;;;;;8.53;1.93;;;;;;;12.05;90.09;102187.31;5007255;28;20069;-90
2022/10/06 01:55:44;;;;;;;11.03;2.20;;;;;;;11.99;90.10;102186.19;5007408;28;20044;-88
2022/10/06 01:58:10;;;;;;;14.77;2.50;;;;;;;12.03;89.52;102189.38;5007274;28;20163;-89
2022/10/06 02:00:36;;;;;;;10.80;2.00;;;;;;;12.01;90.11;102203.16;5018065;28;20033;-90
2022/10/06 02:03:01;;;;;;;11.67;2.40;;;;;;;12.01;89.20;102208.59;5029571;28;20041;-89
2022/10/06 02:05:26;;;;;;;10.00;2.37;;;;;;;12.02;89.22;102212.13;5029892;28;20044;-90
2022/10/06 02:07:52;;;;;;;12.17;2.17;;;;;;;11.98;89.05;102209.81;5029527;28;20044;-90
2022/10/06 02:10:18;;;;;;;12.47;2.27;;;;;;;11.98;89.05;102207.09;5030130;28;20045;-88
2022/10/06 02:12:43;;;;;;;13.13;2.30;;;;;;;11.96;89.37;102213.75;5030047;28;20087;-90
2022/10/06 02:15:12;;;;;;;11.50;2.10;;;;;;;11.95;89.14;102221.06;5028923;28;20250;-88
2022/10/06 02:17:37;;;;;;;7.63;1.93;;;;;;;11.82;89.21;102205.38;5029226;28;20515;-88
2022/10/06 02:20:06;;;;;;;10.33;2.43;;;;;;;11.89;89.54;102229.91;5029344;28;20049;-89
2022/10/06 02:22:35;;;;;;;12.13;2.43;;;;;;;11.88;89.44;102232.81;5001584;28;20480;-88
2022/10/06 02:25:01;;;;;;;11.90;2.37;;;;;;;11.83;89.46;102228.78;5023550;28;20049;-89
2022/10/06 02:27:26;;;;;;;8.80;2.20;;;;;;;11.77;89.58;102234.94;5029576;28;20741;-92
2022/10/06 02:29:51;;;;;;;9.90;2.27;;;;;;;11.80;89.64;102241.88;5028268;28;20049;-88
2022/10/06 02:32:17;;;;;;;9.63;2.10;;;;;;;11.79;89.59;102237.47;5002924;28;20040;-88
2022/10/06 02:34:42;;;;;;;11.67;2.70;;;;;;;11.71;89.56;102229.41;5028706;28;20888;-88
2022/10/06 02:37:07;;;;;;;11.83;2.60;;;;;;;11.71;90.30;102257.41;5029587;28;20065;-89
2022/10/06 02:39:33;;;;;;;13.27;2.60;;;;;;;11.67;90.12;102245.25;5029099;28;20034;-87
2022/10/06 02:41:58;;;;;;;12.37;2.53;;;;;;;11.71;89.68;102264.72;4990711;28;20067;-86
2022/10/06 02:44:24;;;;;;;10.73;2.20;;;;;;;11.64;90.17;102264.59;5028419;28;20064;-86
2022/10/06 02:46:50;;;;;;;11.57;2.37;;;;;;;11.58;90.43;102273.50;5028940;28;20560;-87
2022/10/06 02:49:15;;;;;;;12.07;2.30;;;;;;;11.54;90.83;102272.19;5028013;28;20024;-86
2022/10/06 02:51:40;;;;;;;11.50;2.50;;;;;;;11.55;90.88;102265.72;5028699;28;20071;-87
2022/10/06 02:54:06;;;;;;;12.00;2.90;;;;;;;11.49;90.74;102267.28;5028192;28;20130;-86
2022/10/06 02:56:31;;;;;;;12.00;2.70;;;;;;;11.47;90.93;102275.59;5028465;28;20041;-87
2022/10/06 02:58:56;;;;;;;11.57;2.57;;;;;;;11.43;90.97;102287.84;4989967;28;20045;-86
2022/10/06 03:01:24;;;;;;;14.77;2.93;;;;;;;11.26;91.33;102281.72;5001531;28;20048;-86
2022/10/06 03:03:50;;;;;;;11.60;2.60;;;;;;;11.35;91.39;102296.06;5027746;28;20123;-86
2022/10/06 03:06:22;;;;;;;12.73;2.70;;;;;;;11.31;91.59;102295.59;5029216;28;20032;-87
2022/10/06 03:08:53;;;;;;;14.87;2.87;;;;;;;11.25;91.58;102290.88;5026773;28;20490;-87
2022/10/06 03:11:22;;;;;;;12.07;2.90;;;;;;;11.26;91.88;102306.16;5028563;28;20037;-88
2022/10/06 03:13:49;;;;;;;13.70;2.67;;;;;;;11.20;91.79;102304.13;5027748;28;20075;-86
2022/10/06 03:16:26;;;;;;;13.27;2.63;;;;;;;11.22;91.73;102312.97;5028574;28;20037;-88
2022/10/06 03:18:53;;;;;;;11.47;2.83;;;;;;;11.18;92.26;102314.34;5027317;28;20152;-88
2022/10/06 03:21:21;;;;;;;16.53;2.83;;;;;;;11.06;92.15;102307.66;5028497;28;20053;-87
2022/10/06 03:23:49;;;;;;;11.90;2.80;;;;;;;11.07;92.18;102309.31;5017714;28;20033;-88
2022/10/06 03:26:16;;;;;;;14.20;3.07;;;;;;;11.08;92.86;102328.16;5027469;28;20041;-87
2022/10/06 03:28:42;;;;;;;12.10;2.73;;;;;;;11.06;92.51;102326.63;5027778;28;20094;-87
2022/10/06 03:31:08;;;;;;;14.70;2.97;;;;;;;11.01;92.99;102326.31;5028259;28;20029;-89
2022/10/06 03:33:33;;;;;;;16.97;2.90;;;;;;;10.98;93.11;102331.06;5027600;28;20080;-90
2022/10/06 03:36:08;;;;;;;12.20;2.50;;;;;;;10.96;93.52;102341.25;5027327;28;20040;-91
2022/10/06 03:38:34;;;;;;;15.07;3.20;;;;;;;10.93;93.85;102346.19;5027711;28;20042;-89
2022/10/06 03:41:06;;;;;;;15.27;3.47;;;;;;;10.88;94.45;102348.56;5027996;28;20044;-88
2022/10/06 03:43:33;;;;;;;15.67;2.53;;;;;;;10.85;94.54;102355.19;5027439;28;20037;-89
2022/10/06 03:46:01;;;;;;;9.33;2.60;;;;;;;10.86;94.71;102345.22;5028021;28;20114;-91
2022/10/06 03:48:32;;;;;;;9.57;2.70;;;;;;;10.79;95.19;102350.50;5001096;28;20124;-90
2022/10/06 03:51:06;;;;;;;12.93;3.30;;;;;;;10.75;95.37;102358.13;5027385;28;20424;-89
2022/10/06 03:53:32;;;;;;;;;;;;;;;10.84;94.02;102363.50;5027295;28;20116;-88
2022/10/06 03:56:11;;;;;;;13.50;3.37;;;;;;;10.72;95.66;102371.19;5027741;28;20440;-90
2022/10/06 03:58:38;;;;;;;19.13;3.20;;;;;;;10.67;95.48;102376.28;5028043;28;20045;-88
2022/10/06 04:01:19;;;;;;;11.97;2.77;;;;;;;10.60;96.14;102373.44;5026744;28;20043;-89
2022/10/06 04:03:44;;;;;;;15.13;3.27;;;;;;;10.61;96.32;102380.56;5027893;28;20415;-88
2022/10/06 04:06:17;;;;;;;15.30;3.20;;;;;;;10.48;96.42;102378.38;5026965;28;21331;-90
2022/10/06 04:08:44;;;;;;;16.27;3.40;;;;;;;10.51;96.93;102397.00;5027113;28;20439;-89
2022/10/06 04:11:15;;;;;;;10.47;2.93;;;;;;;10.53;97.26;102397.69;5027064;28;20033;-86
2022/10/06 04:13:42;;;;;;;12.07;2.90;;;;;;;10.39;97.06;102382.97;5022110;28;20319;-88
2022/10/06 04:16:18;;;;;;;12.13;3.03;;;;;;;10.51;97.44;102412.41;5025316;28;20138;-87
2022/10/06 04:18:45;;;;;;;12.27;3.00;;;;;;;10.46;97.41;102410.25;5027208;28;20040;-86
2022/10/06 04:21:11;;;;;;;14.33;3.40;;;;;;;10.42;97.61;102419.72;5027123;28;20053;-89
2022/10/06 04:23:37;;;;;;;12.63;3.27;;;;;;;10.42;97.74;102417.03;4999617;28;20049;-88
2022/10/06 04:26:08;;;;;;;14.63;3.30;;;;;;;10.41;97.81;102420.75;5027432;28;20036;-87
2022/10/06 04:28:36;;;;;;;15.90;3.33;;;;;;;10.42;97.72;102430.56;5027277;28;20049;-88
2022/10/06 04:31:04;;;;;;;12.67;3.27;;;;;;;10.36;97.91;102423.13;5027052;28;20706;-88
2022/10/06 04:33:33;;;;;;;14.57;3.30;;;;;;;10.33;98.10;102423.44;5027309;28;20347;-88
2022/10/06 04:36:02;;;;;;;13.83;3.23;;;;;;;10.30;98.58;102427.31;5027039;28;20125;-86
2022/10/06 04:38:30;;;;;;;17.07;3.43;;;;;;;10.30;98.32;102428.16;5026665;28;20041;-88
2022/10/06 04:40:56;;;;;;;14.20;3.50;;;;;;;10.22;98.63;102425.47;5026810;28;20172;-90
2022/10/06 04:43:22;;;;;;;15.20;3.23;;;;;;;10.21;98.60;102437.31;4988679;28;20049;-87
2022/10/06 04:45:55;;;;;;;15.00;3.47;;;;;;;10.21;99.00;102441.88;5025430;28;20084;-88
2022/10/06 04:48:20;;;;;;;10.73;3.10;;;;;;;10.18;98.73;102442.25;5025310;28;20081;-89
2022/10/06 04:50:53;;;;;;;14.40;3.37;;;;;;;10.12;99.06;102443.78;5026482;28;20679;-89
2022/10/06 04:53:18;;;;;;;16.43;3.30;;;;;;;10.04;98.75;102430.22;5026925;28;20132;-88
2022/10/06 04:55:43;;;;;;;16.63;3.90;;;;;;;10.11;98.75;102453.72;5027083;28;20048;-89
2022/10/06 04:58:09;;;;;;;15.80;3.40;;;;;;;10.06;99.00;102444.44;5003166;28;20045;-88
2022/10/06 05:00:34;;;;;;;16.93;3.40;;;;;;;10.07;99.15;102462.38;5026207;28;20095;-90
2022/10/06 05:02:59;;;;;;;14.03;3.30;;;;;;;10.04;99.29;102465.44;5026534;28;20041;-86
2022/10/06 05:05:25;;;;;;;16.37;3.50;;;;;;;9.99;99.29;102467.78;5004747;28;20049;-87
2022/10/06 05:07:50;;;;;;;17.37;3.67;;;;;;;9.97;99.46;102476.94;5026309;28;20047;-89
2022/10/06 05:10:16;;;;;;;16.77;3.60;;;;;;;9.91;99.41;102477.63;5026763;28;20041;-88
2022/10/06 05:12:41;;;;;;;17.93;3.80;;;;;;;9.92;99.20;102481.16;5029202;28;20115;-88
2022/10/06 05:15:08;;;;;;;17.97;4.10;;;;;;;9.88;99.19;102483.34;5008718;28;20701;-88
2022/10/06 05:17:34;;;;;;;16.27;3.87;;;;;;;9.78;99.24;102478.09;4971691;28;20033;-88
2022/10/06 05:20:00;;;;;;;17.03;3.67;;;;;;;9.86;99.35;102507.03;5030428;28;20140;-88
2022/10/06 05:22:26;;;;;;;20.43;3.63;;;;;;;9.81;99.27;102495.84;5029959;28;20045;-88
2022/10/06 05:24:52;;;;;;;18.10;3.77;;;;;;;9.83;99.36;102511.94;5029609;28;20045;-87
2022/10/06 05:27:19;;;;;;;15.00;3.83;;;;;;;9.73;99.42;102493.13;5009090;28;20049;-88
2022/10/06 05:29:45;;;;;;;14.90;3.53;;;;;;;9.74;99.78;102513.78;5030134;28;20025;-87
2022/10/06 05:32:10;;;;;;;20.17;3.80;;;;;;;9.64;99.76;102503.06;5030351;28;20060;-88
2022/10/06 05:34:35;;;;;;;18.53;3.93;;;;;;;9.68;100.00;102527.97;5030252;28;21456;-87
2022/10/06 05:37:01;;;;;;;17.57;3.63;;;;;;;9.68;99.93;102527.97;5030510;28;20045;-87
2022/10/06 05:39:26;;;;;;;16.23;4.00;;;;;;;9.61;99.97;102523.22;5029610;28;20032;-87
2022/10/06 05:41:51;;;;;;;16.63;3.67;;;;;;;9.65;100.00;102525.59;5030674;28;20037;-87
2022/10/06 05:44:17;;;;;;;16.97;4.30;;;;;;;9.60;100.00;102532.34;5020182;28;20676;-87
2022/10/06 05:46:42;;;;;;;17.30;3.93;;;;;;;9.60;100.00;102540.47;5029906;28;20681;-87
2022/10/06 05:49:09;;;;;;;17.47;3.77;;;;;;;9.58;100.00;102539.78;5012174;28;20582;-87
2022/10/06 05:51:35;;;;;;;13.73;3.50;;;;;;;9.56;100.00;102544.50;5030070;28;20036;-87
2022/10/06 05:54:01;;;;;;;23.17;4.20;;;;;;;9.55;99.81;102550.94;5029223;28;20037;-88
2022/10/06 05:56:31;;;;;;;21.23;4.27;;;;;;;9.52;100.00;102553.09;5030645;28;20058;-87
2022/10/06 05:58:58;;;;;;;21.90;3.90;;;;;;;9.48;100.00;102560.72;5007852;28;20045;-88
2022/10/06 06:01:35;;;;;;;18.33;3.87;;;;;;;9.48;100.00;102558.00;5029942;28;20040;-86
2022/10/06 06:04:03;;;;;;;22.13;4.47;;;;;;;9.45;100.00;102570.00;5029610;28;20041;-88
2022/10/06 06:06:31;;;;;;;20.20;4.07;;;;;;;9.41;100.00;102562.34;5023162;28;20673;-88
2022/10/06 06:08:57;;;;;;;20.20;4.10;;;;;;;9.33;100.00;102559.59;5024177;28;20312;-88
2022/10/06 06:11:26;;;;;;;15.47;3.80;;;;;;;9.39;100.00;102575.22;5029576;28;20120;-87
2022/10/06 06:14:02;;;;;;;20.50;4.20;;;;;;;9.44;100.00;102589.09;5029543;28;20036;-88
2022/10/06 06:16:31;;;;;;;21.83;4.33;;;;;;;9.44;100.00;102587.25;5029933;28;20060;-86
2022/10/06 06:18:58;;;;;;;21.03;4.40;;;;;;;9.46;100.00;102587.06;5003220;28;20178;-86
2022/10/06 06:21:24;;;;;;;21.43;4.60;;;;;;;9.36;100.00;102570.97;5030161;28;20053;-88
2022/10/06 06:23:49;;;;;;;19.93;4.27;;;;;;;9.37;100.00;102567.25;5028121;28;20077;-87
2022/10/06 06:26:26;;;;;;;18.40;4.20;;;;;;;9.55;100.00;102596.94;5029538;28;20038;-87
2022/10/06 06:28:53;;;;;;;22.73;4.30;;;;;;;9.56;100.00;102587.81;5029173;28;20033;-86
2022/10/06 06:31:21;;;;;;;17.47;4.00;;;;;;;9.57;100.00;102594.94;5028111;28;20138;-88
2022/10/06 06:33:50;;;;;;;17.67;4.17;;;;;;;9.61;100.00;102595.44;5029803;28;20029;-86
2022/10/06 06:36:20;;;;;;;15.97;3.90;;;;;;;9.68;99.86;102595.63;5002421;28;20481;-86
2022/10/06 06:38:51;;;;;;;19.83;4.40;;;;;;;9.71;99.31;102601.56;5029415;28;20044;-87
2022/10/06 06:41:25;;;;;;;21.07;4.47;;;;;;;9.72;99.39;102605.94;5029725;28;20033;-90
2022/10/06 06:43:54;;;;;;;21.38;4.20;;;;;;;9.75;99.43;102599.38;5028606;28;20623;-87
2022/10/06 06:46:23;;;;;;;20.37;4.37;;;;;;;9.87;98.57;102622.44;5007020;28;20116;-88
2022/10/06 06:48:50;;;;;;;20.90;4.67;;;;;;;9.93;98.40;102616.38;5029194;28;20136;-86
2022/10/06 06:51:15;;;;;;;21.77;4.60;;;;;;;9.96;98.71;102616.03;5029218;28;20193;-87
2022/10/06 06:53:41;;;;;;;20.90;4.13;;;;;;;10.08;98.21;102618.47;5007158;28;20234;-87
2022/10/06 06:56:07;;;;;;;17.63;4.27;;;;;;;10.10;97.75;102619.13;5010898;28;20037;-87
2022/10/06 06:58:36;;;;;;;19.00;4.60;;;;;;;10.19;97.67;102631.69;5028017;28;20605;-88
2022/10/06 07:01:12;;;;;;;23.60;5.30;;;;;;;10.28;96.82;102633.41;5028717;28;20474;-87
2022/10/06 07:03:44;;;;;;;19.80;5.20;;;;;;;10.35;96.78;102630.03;5028961;28;20045;-86
2022/10/06 07:06:12;;;;;;;19.87;4.20;;;;;;;10.45;95.59;102641.59;5028006;28;20623;-87
2022/10/06 07:08:43;;;;;;;15.43;3.97;;;;;;;10.55;94.92;102645.00;5029046;28;20240;-88
2022/10/06 07:11:22;;;;;;;20.23;4.63;;;;;;;10.66;94.38;102657.34;5002170;28;20502;-86
2022/10/06 07:13:57;;;;;;;18.93;4.40;;;;;;;10.68;95.21;102652.63;5028236;28;20051;-86
2022/10/06 07:25:05;;;;;;;16.77;4.10;;;;;;;11.05;91.98;102670.25;5033590;28;20068;-85
2022/10/06 07:27:45;;;;;;;16.03;3.77;;;;;;;11.18;92.91;102677.88;5030773;28;20436;-85
2022/10/06 07:30:17;;;;;;;16.70;3.97;;;;;;;11.36;91.54;102687.72;5051695;28;20436;-86
2022/10/06 07:32:44;;;;;;;20.10;4.10;;;;;;;11.46;90.80;102693.78;5040302;28;20021;-85
2022/10/06 07:35:09;;;;;;;19.70;4.63;;;;;;;11.56;89.51;102702.59;5030765;28;20171;-86
2022/10/06 07:37:35;;;;;;;16.00;4.13;;;;;;;11.66;89.29;102707.84;5030954;28;20033;-85
2022/10/06 07:40:01;;;;;;;16.13;3.67;;;;;;;11.76;88.08;102715.78;5028783;28;20041;-86
2022/10/06 07:42:26;;;;;;;21.27;4.03;;;;;;;11.83;88.18;102714.91;5030827;28;20230;-86
2022/10/06 07:47:38;;;;;;;18.77;4.13;;;;;;;12.18;88.32;102721.97;5031161;28;20098;-86
2022/10/06 07:50:06;;;;;;;15.70;3.40;;;;;;;12.26;85.33;102722.75;5031860;28;20580;-86
2022/10/06 07:52:31;;;;;;;16.57;3.60;;;;;;;12.57;85.34;102729.25;5032660;28;20040;-85
2022/10/06 07:54:57;;;;;;;20.53;3.13;;;;;;;12.75;84.56;102728.94;5031665;28;20388;-85
2022/10/06 07:57:25;;;;;;;15.50;3.50;;;;;;;12.91;82.88;102734.28;5046882;28;20037;-87
2022/10/06 07:59:50;;;;;;;19.90;4.40;;;;;;;12.94;81.61;102719.47;5037440;28;20684;-86
2022/10/06 08:02:17;;;;;;;16.20;3.57;;;;;;;13.18;81.18;102738.31;5030431;28;20060;-86
2022/10/06 08:04:43;;;;;;;18.10;3.83;;;;;;;13.45;80.92;102732.47;5030206;28;20041;-86
2022/10/06 08:07:09;;;;;;;15.43;3.57;;;;;;;13.55;79.91;102743.97;4977842;28;20485;-86
2022/10/06 08:09:34;;;;;;;16.53;3.40;;;;;;;13.80;77.98;102741.00;5029920;28;20150;-86
2022/10/06 08:12:31;;;;;;;17.07;3.20;;;;;;;13.98;77.14;102744.19;5031141;28;20029;-85
2022/10/06 08:14:46;;;;;;;16.40;3.87;;;;;;;14.25;76.32;102744.56;5030673;28;21452;-86
2022/10/06 08:17:11;;;;;;;19.87;3.70;;;;;;;14.31;75.56;102738.34;5047847;28;20082;-86
2022/10/06 08:19:37;;;;;;;21.17;3.93;;;;;;;14.52;74.84;102762.09;5034199;28;20045;-86
2022/10/06 08:22:02;;;;;;;15.53;3.37;;;;;;;14.81;74.38;102757.63;5037429;28;20037;-86
2022/10/06 08:24:27;;;;;;;17.00;3.40;;;;;;;14.94;74.70;102758.81;5044634;28;20045;-86
2022/10/06 08:26:53;;;;;;;15.30;3.67;;;;;;;15.07;71.83;102766.28;5029912;28;20055;-86
2022/10/06 08:29:18;;;;;;;15.17;3.70;;;;;;;15.29;73.06;102776.16;5004400;28;20119;-85
2022/10/06 08:31:43;;;;;;;16.53;3.40;;;;;;;15.35;70.97;102778.13;5028954;28;20037;-87
2022/10/06 08:34:09;;;;;;;19.47;3.50;;;;;;;15.35;70.94;102767.19;5002885;28;20048;-88
2022/10/06 08:36:34;;;;;;;13.40;3.40;;;;;;;15.49;69.99;102784.53;5002415;28;20085;-86
2022/10/06 08:39:31;;;;;;;16.13;3.60;;;;;;;15.84;71.81;102786.50;5026281;28;20068;-86
2022/10/06 08:41:57;;;;;;;16.53;3.53;;;;;;;15.81;69.46;102778.69;5025425;28;20047;-86
2022/10/06 08:44:42;;;;;;;17.80;3.53;;;;;;;16.12;70.80;102785.63;5026112;28;20024;-86
2022/10/06 08:47:18;;;;;;;15.73;3.40;;;;;;;16.15;69.59;102794.25;5035698;28;20377;-87
2022/10/06 08:49:46;;;;;;;15.80;3.03;;;;;;;16.09;68.24;102795.06;5046022;28;20029;-87
2022/10/06 08:52:27;;;;;;;16.50;3.50;;;;;;;15.96;66.65;102798.56;5048613;28;20362;-87
2022/10/06 08:55:25;;;;;;;12.57;3.17;;;;;;;16.43;69.84;102811.66;5031721;28;20033;-87
2022/10/06 08:58:21;;;;;;;17.60;3.25;;;;;;;16.34;68.59;102808.25;5030518;28;20459;-86
2022/10/06 09:00:47;;;;;;;13.85;3.22;;;;;;;16.52;65.53;102810.44;5036160;28;20023;-87
2022/10/06 09:03:22;;;;;;;14.93;3.42;;;;;;;16.52;66.52;102814.03;5036506;28;20365;-86
2022/10/06 09:05:50;;;;;;;17.00;3.90;;;;;;;16.58;64.26;102812.38;5016830;28;20025;-86
2022/10/06 09:08:33;;;;;;;16.30;3.58;;;;;;;16.62;65.48;102827.31;5033278;28;20461;-86
2022/10/06 09:11:33;;;;;;;15.27;3.10;;;;;;;16.78;65.20;102823.41;5031518;28;20021;-86
2022/10/06 09:14:27;;;;;;;11.43;2.95;;;;;;;16.92;65.63;102831.66;5004567;28;20128;-87
2022/10/06 09:16:59;;;;;;;15.15;3.05;;;;;;;16.65;63.67;102832.38;4998137;28;20039;-87
2022/10/06 09:19:42;;;;;;;17.15;3.78;;;;;;;16.71;66.20;102836.19;5026005;28;20360;-86
2022/10/06 09:22:20;;;;;;;14.25;3.20;;;;;;;16.83;64.97;102839.19;5037092;28;20025;-88
2022/10/06 09:24:49;;;;;;;15.88;3.00;;;;;;;16.88;62.94;102847.66;5034317;28;20029;-86
2022/10/06 09:27:22;;;;;;;11.23;2.90;;;;;;;16.83;64.01;102850.13;5044145;28;20033;-86
2022/10/06 09:29:49;;;;;;;15.77;3.40;;;;;;;16.65;63.41;102857.00;5029192;28;20083;-88
2022/10/06 09:32:19;;;;;;;14.65;3.15;;;;;;;16.70;63.86;102848.22;5030191;28;20064;-87
2022/10/06 09:34:51;;;;;;;17.23;2.95;;;;;;;16.95;65.04;102842.22;5030385;28;20033;-86
2022/10/06 09:37:17;;;;;;;14.95;3.22;;;;;;;17.04;62.87;102841.00;5042500;28;20020;-86
2022/10/06 09:39:49;;;;;;;12.82;2.78;;;;;;;17.04;64.06;102850.03;5049333;28;20108;-87
2022/10/06 09:42:35;;;;;;;14.45;2.92;;;;;;;16.98;62.84;102852.75;5032858;28;20537;-87
2022/10/06 09:45:22;;;;;;;13.85;2.95;;;;;;;16.65;62.38;102853.44;5032012;28;20125;-86
2022/10/06 09:47:49;;;;;;;11.70;2.60;;;;;;;16.68;62.44;102853.03;5045743;28;20025;-87
2022/10/06 09:50:16;;;;;;;14.25;2.97;;;;;;;16.65;62.56;102854.28;5031729;28;20029;-87
2022/10/06 09:53:02;;;;;;;16.48;3.00;;;;;;;16.66;62.60;102857.88;5045811;28;20018;-88
2022/10/06 09:55:53;;;;;;;13.32;3.05;;;;;;;17.15;62.97;102850.50;5028487;28;20068;-87
2022/10/06 09:58:33;;;;;;;13.52;3.47;;;;;;;17.34;61.92;102857.91;5047375;28;20021;-87
2022/10/06 10:01:06;;;;;;;10.88;2.60;;;;;;;17.11;60.41;102866.50;5052022;28;20027;-87
2022/10/06 10:03:43;;;;;;;15.10;2.90;;;;;;;17.06;62.04;102859.94;5029236;28;20549;-88
2022/10/06 10:06:24;;;;;;;11.48;2.70;;;;;;;17.26;61.47;102860.84;5045512;28;20054;-89
2022/10/06 10:08:49;;;;;;;12.23;2.53;;;;;;;17.49;58.98;102856.88;5048950;28;20539;-87
2022/10/06 10:14:15;;;;;;;11.77;3.05;;;;;;;17.55;60.81;102854.13;5038321;28;20052;-86
2022/10/06 10:16:41;;;;;;;9.98;2.35;;;;;;;17.27;58.03;102858.94;5018953;28;20541;-87
2022/10/06 10:19:23;;;;;;;14.57;2.90;;;;;;;17.12;59.43;102862.72;5045875;28;20103;-87
2022/10/06 10:21:48;;;;;;;11.73;2.47;;;;;;;16.80;60.23;102853.31;5036389;28;20026;-87
2022/10/06 10:24:25;;;;;;;14.20;2.80;;;;;;;16.87;60.15;102863.19;5004942;28;20040;-86
2022/10/06 10:27:13;;;;;;;14.38;3.05;;;;;;;16.60;61.55;102875.94;5033100;28;20044;-88
2022/10/06 10:29:48;;;;;;;11.27;2.70;;;;;;;16.33;62.00;102864.84;5054789;28;20029;-87
2022/10/06 10:32:23;;;;;;;9.95;2.60;;;;;;;16.29;62.21;102865.44;5055343;28;20025;-87
2022/10/06 10:35:00;;;;;;;11.05;2.42;;;;;;;16.44;60.80;102873.53;5035208;28;20029;-87
2022/10/06 10:37:47;;;;;;;11.63;2.57;;;;;;;16.37;61.37;102873.50;5051199;28;20484;-88
2022/10/06 10:40:18;;;;;;;13.15;2.47;;;;;;;16.12;59.73;102871.22;5043742;28;20036;-87
2022/10/06 10:42:49;;;;;;;11.13;2.30;;;;;;;16.04;60.35;102866.75;5044079;28;20480;-87
2022/10/06 10:45:26;;;;;;;12.60;2.57;;;;;;;15.97;61.29;102874.06;5053986;28;20461;-88
2022/10/06 10:47:53;;;;;;;11.60;2.60;;;;;;;15.66;62.23;102861.56;5023923;28;20021;-90
2022/10/06 10:51:06;;;;;;;15.07;3.00;;;;;;;15.78;61.40;102848.22;5054181;28;20025;-88
2022/10/06 10:53:39;;;;;;;13.87;3.20;;;;;;;15.79;62.38;102862.72;5016730;28;20042;-93
2022/10/06 10:56:08;;;;;;;11.43;2.90;;;;;;;15.63;62.76;102863.88;5034517;28;20438;-91
2022/10/06 10:58:36;;;;;;;9.87;2.63;;;;;;;15.70;62.54;102868.34;5036011;28;20025;-91
2022/10/06 11:01:35;;;;;;;14.67;3.10;;;;;;;15.84;62.98;102868.50;5030448;28;20029;-89
2022/10/06 11:04:02;;;;;;;9.03;2.33;;;;;;;15.98;62.08;102870.28;5045918;28;20071;-90
2022/10/06 11:07:05;;;;;;;12.40;3.00;;;;;;;16.24;62.14;102868.78;5039542;28;20122;-89
2022/10/06 11:09:44;;;;;;;13.03;2.90;;;;;;;16.04;59.84;102879.59;5049325;28;20052;-87
2022/10/06 11:12:18;;;;;;;11.70;2.47;;;;;;;15.85;60.23;102875.66;5035511;28;20064;-92
2022/10/06 11:15:04;;;;;;;11.88;2.80;;;;;;;15.88;60.31;102890.81;5044932;28;20021;-91
2022/10/06 11:17:45;;;;;;;12.67;2.90;;;;;;;15.59;60.96;102873.50;5033423;28;20021;-88
2022/10/06 11:20:24;;;;;;;10.50;2.70;;;;;;;15.70;59.97;102881.16;5018480;28;20087;-88
2022/10/06 11:23:11;;;;;;;12.20;3.27;;;;;;;15.76;60.99;102879.53;5031624;28;20084;-90
2022/10/06 11:26:16;;;;;;;9.90;3.10;;;;;;;15.85;61.18;102875.66;5031293;28;20045;-90
2022/10/06 11:29:07;;;;;;;10.87;2.63;;;;;;;16.11;60.81;102879.63;5031048;28;20333;-90
2022/10/06 11:31:46;;;;;;;12.77;3.00;;;;;;;16.10;59.91;102877.94;5031482;28;20799;-87
2022/10/06 11:34:13;;;;;;;11.43;2.57;;;;;;;16.13;59.87;102874.78;5031558;28;20040;-88
2022/10/06 11:37:03;;;;;;;13.47;2.70;;;;;;;16.19;59.87;102871.28;5030449;28;20037;-86
2022/10/06 11:39:56;;;;;;;8.97;2.40;;;;;;;16.11;59.15;102880.47;5041572;28;20032;-88
2022/10/06 11:42:39;;;;;;;10.57;2.43;;;;;;;16.08;59.24;102872.69;5033239;28;20037;-88
2022/10/06 11:45:14;;;;;;;9.37;2.20;;;;;;;16.02;58.92;102882.53;5033842;28;20033;-88
2022/10/06 11:47:55;;;;;;;10.97;2.17;;;;;;;15.87;59.92;102868.13;5030753;28;20029;-88